Time;durP1;ratioP1;P1;durP2;ratioP2;P2;SDS_P1;SDS_P2;PMS_P1;PMS_P2;Temp;Humidity;BMP_temperature;BMP_pressure;BME280_temperature;BME280_humidity;BME280_pressure;Samples;Min_cycle;Max_cycle;Signal;HPM_P1;HPM_P2
2022/05/23 00:00:47;;;;;;;3.58;3.05;;;;;;;11.85;nan;98319.94;4997588;28;20609;-62
2022/05/23 00:03:13;;;;;;;4.57;4.18;;;;;;;11.89;nan;98321.53;4995702;28;20403;-59
2022/05/23 00:05:40;;;;;;;6.40;3.85;;;;;;;11.87;nan;98324.16;4997175;28;20465;-62
2022/05/23 00:08:05;;;;;;;4.32;3.83;;;;;;;11.78;nan;98316.72;5002062;28;20077;-61
2022/05/23 00:10:31;;;;;;;4.25;3.85;;;;;;;11.77;nan;98317.59;4995313;28;20490;-61
2022/05/23 00:12:57;;;;;;;4.28;3.83;;;;;;;11.73;nan;98322.84;4997929;28;20484;-62
2022/05/23 00:15:23;;;;;;;8.32;3.65;;;;;;;11.77;nan;98327.88;4999852;28;20045;-62
2022/05/23 00:17:49;;;;;;;5.18;3.30;;;;;;;11.67;nan;98328.97;4998680;28;20044;-62
2022/05/23 00:20:19;;;;;;;4.68;3.88;;;;;;;11.66;nan;98317.03;4994317;28;20128;-63
2022/05/23 00:22:45;;;;;;;3.78;3.47;;;;;;;11.62;nan;98330.84;4994902;28;20039;-61
2022/05/23 00:25:11;;;;;;;4.75;4.07;;;;;;;11.57;nan;98322.44;4992368;28;20034;-62
2022/05/23 00:27:39;;;;;;;4.20;3.40;;;;;;;11.62;nan;98335.97;4998285;28;20040;-61
2022/05/23 00:30:10;;;;;;;3.92;3.63;;;;;;;11.48;nan;98326.97;4992488;28;20506;-61
2022/05/23 00:35:19;;;;;;;5.43;3.65;;;;;;;11.51;nan;98348.25;4991579;28;20131;-61
2022/05/23 00:37:47;;;;;;;4.32;3.90;;;;;;;11.50;nan;98341.44;4993340;28;20142;-61
2022/05/23 00:40:30;;;;;;;4.32;3.42;;;;;;;11.55;nan;98349.00;4991984;28;20483;-61
2022/05/23 00:43:13;;;;;;;4.30;3.90;;;;;;;11.48;nan;98339.81;4993594;28;20033;-63
2022/05/23 00:45:41;;;;;;;4.95;4.00;;;;;;;11.56;nan;98346.41;4990748;28;20026;-61
2022/05/23 00:48:08;;;;;;;3.58;2.85;;;;;;;11.45;nan;98335.59;4991752;28;20049;-61
2022/05/23 00:50:38;;;;;;;5.20;3.60;;;;;;;11.44;nan;98341.63;4992538;28;20435;-61
2022/05/23 00:53:04;;;;;;;4.72;3.35;;;;;;;11.37;nan;98338.34;4998563;28;20143;-61
2022/05/23 00:55:41;;;;;;;4.70;4.30;;;;;;;11.41;nan;98344.28;4991717;28;20033;-61
2022/05/23 00:58:21;;;;;;;5.78;3.55;;;;;;;11.30;nan;98325.72;4989766;28;20029;-62
2022/05/23 01:00:47;;;;;;;4.13;3.53;;;;;;;11.25;nan;98338.69;4991776;28;20027;-61
2022/05/23 01:03:16;;;;;;;5.32;3.92;;;;;;;11.20;nan;98330.25;4996880;28;20038;-61
2022/05/23 01:05:42;;;;;;;4.70;3.88;;;;;;;11.25;nan;98335.28;4989403;28;20033;-61
2022/05/23 01:08:08;;;;;;;5.30;3.75;;;;;;;11.20;nan;98343.09;4990420;28;20038;-61
2022/05/23 01:10:36;;;;;;;4.43;3.05;;;;;;;11.22;nan;98346.47;4993751;28;20056;-61
2022/05/23 01:13:02;;;;;;;3.85;3.50;;;;;;;11.15;nan;98326.16;4996689;28;20064;-61
2022/05/23 01:15:30;;;;;;;5.70;4.00;;;;;;;11.11;nan;98316.84;4992960;28;20096;-61
2022/05/23 01:17:56;;;;;;;6.20;3.88;;;;;;;11.15;nan;98326.16;4991713;28;20042;-61
2022/05/23 01:20:23;;;;;;;4.35;3.97;;;;;;;11.08;nan;98328.03;4997238;28;20026;-61
2022/05/23 01:23:10;;;;;;;7.95;3.63;;;;;;;11.11;nan;98324.56;5000612;28;20037;-61
2022/05/23 01:25:39;;;;;;;4.10;3.33;;;;;;;11.02;nan;98324.78;4991940;28;20622;-61
2022/05/23 01:28:05;;;;;;;4.20;3.72;;;;;;;11.00;nan;98320.53;4989792;28;20034;-62
2022/05/23 01:30:33;;;;;;;4.18;3.20;;;;;;;10.90;nan;98313.97;4995501;28;20044;-61
2022/05/23 01:32:59;;;;;;;4.00;3.55;;;;;;;10.96;nan;98326.63;4995434;28;20034;-61
2022/05/23 01:35:24;;;;;;;4.88;4.05;;;;;;;10.87;nan;98319.16;4992061;28;20041;-61
2022/05/23 01:37:50;;;;;;;6.35;3.83;;;;;;;10.74;nan;98317.78;4990648;28;20033;-61
2022/05/23 01:40:18;;;;;;;5.78;3.42;;;;;;;10.81;nan;98328.72;4992799;28;20395;-61
2022/05/23 01:42:43;;;;;;;4.95;3.63;;;;;;;10.76;nan;98321.16;4995138;28;20088;-62
2022/05/23 01:45:12;;;;;;;4.10;3.75;;;;;;;10.71;nan;98307.59;4990363;28;20042;-61
2022/05/23 01:47:37;;;;;;;5.47;3.83;;;;;;;10.73;nan;98318.66;4988989;28;20498;-62
2022/05/23 01:50:03;;;;;;;5.03;4.18;;;;;;;10.72;nan;98314.41;4990354;28;20061;-61
2022/05/23 01:52:29;;;;;;;6.35;3.67;;;;;;;10.70;nan;98308.47;4993268;28;20089;-62
2022/05/23 01:54:54;;;;;;;9.02;3.88;;;;;;;10.64;nan;98300.94;4989442;28;20088;-61
2022/05/23 01:57:19;;;;;;;7.30;3.88;;;;;;;10.62;nan;98305.25;4987498;28;20421;-61
2022/05/23 02:02:29;;;;;;;4.32;4.03;;;;;;;10.54;nan;98300.31;4992543;28;20032;-61
2022/05/23 02:04:55;;;;;;;6.45;4.50;;;;;;;10.53;nan;98295.22;4988888;28;20025;-61
2022/05/23 02:07:21;;;;;;;4.55;3.80;;;;;;;10.52;nan;98296.13;4991770;28;20045;-61
2022/05/23 02:09:47;;;;;;;4.53;4.13;;;;;;;10.47;nan;98295.38;4990082;28;20866;-61
2022/05/23 02:12:17;;;;;;;4.53;4.13;;;;;;;10.45;nan;98289.44;4987979;28;20073;-61
2022/05/23 02:14:43;;;;;;;6.05;4.80;;;;;;;10.37;nan;98286.22;4990441;28;20029;-61
2022/05/23 02:17:09;;;;;;;7.43;4.18;;;;;;;10.36;nan;98284.53;4994228;28;20606;-61
2022/05/23 02:19:36;;;;;;;6.47;3.67;;;;;;;10.36;nan;98287.94;4988604;28;20468;-61
2022/05/23 02:22:02;;;;;;;5.85;4.50;;;;;;;10.27;nan;98274.53;4988638;28;20022;-61
2022/05/23 02:24:27;;;;;;;6.43;4.47;;;;;;;10.30;nan;98279.56;4988570;28;20125;-61
2022/05/23 02:26:53;;;;;;;4.13;3.72;;;;;;;10.31;nan;98281.25;4996479;28;20153;-61
2022/05/23 02:29:18;;;;;;;5.30;4.37;;;;;;;10.24;nan;98275.41;4991042;28;20056;-61
2022/05/23 02:31:43;;;;;;;8.40;5.03;;;;;;;10.21;nan;98274.66;4988834;28;20459;-61
2022/05/23 02:34:10;;;;;;;4.20;3.90;;;;;;;10.23;nan;98283.97;4988830;28;20068;-61
2022/05/23 02:36:35;;;;;;;6.93;4.10;;;;;;;10.10;nan;98272.28;4994909;28;20074;-61
2022/05/23 02:39:01;;;;;;;4.63;4.10;;;;;;;10.08;nan;98274.06;4993870;28;20034;-61
2022/05/23 02:41:26;;;;;;;4.20;3.90;;;;;;;10.09;nan;98281.72;4988652;28;20057;-61
2022/05/23 02:43:52;;;;;;;5.30;4.47;;;;;;;10.08;nan;98284.31;4989728;28;20030;-61
2022/05/23 02:46:17;;;;;;;4.83;4.20;;;;;;;10.02;nan;98269.06;4995976;28;20030;-61
2022/05/23 02:48:43;;;;;;;4.40;4.00;;;;;;;9.99;nan;98269.13;4996932;28;20045;-61
2022/05/23 02:51:08;;;;;;;4.67;4.20;;;;;;;9.93;nan;98262.44;4991375;28;20472;-61
2022/05/23 02:53:33;;;;;;;4.17;3.80;;;;;;;9.81;nan;98260.16;4989811;28;20081;-61
2022/05/23 02:55:59;;;;;;;6.67;4.70;;;;;;;9.88;nan;98266.84;4994678;28;20180;-61
2022/05/23 02:58:25;;;;;;;5.30;4.80;;;;;;;9.83;nan;98260.13;4992456;28;20083;-61
2022/05/23 03:00:50;;;;;;;6.33;4.40;;;;;;;9.73;nan;98250.94;4987486;28;20093;-61
2022/05/23 03:03:16;;;;;;;7.37;4.63;;;;;;;9.82;nan;98272.06;4988432;28;20034;-61
2022/05/23 03:05:44;;;;;;;4.60;4.10;;;;;;;9.74;nan;98252.63;4992803;28;20023;-61
2022/05/23 03:08:13;;;;;;;6.67;4.63;;;;;;;9.79;nan;98259.34;4991739;28;20042;-60
2022/05/23 03:10:39;;;;;;;5.63;4.23;;;;;;;9.68;nan;98251.03;4988589;28;20036;-61
2022/05/23 03:13:06;;;;;;;6.73;4.53;;;;;;;9.73;nan;98248.38;4987505;28;20586;-61
2022/05/23 03:15:32;;;;;;;6.00;4.67;;;;;;;9.76;nan;98249.16;4990744;28;20026;-61
2022/05/23 03:17:58;;;;;;;7.07;5.00;;;;;;;9.82;nan;98251.59;4990171;28;20358;-61
2022/05/23 03:20:24;;;;;;;4.97;4.50;;;;;;;9.81;nan;98237.09;4990046;28;20045;-61
2022/05/23 03:28:19;;;;;;;5.97;4.20;;;;;;;9.74;nan;98243.25;4991903;28;20518;-61
2022/05/23 03:30:46;;;;;;;6.30;4.83;;;;;;;9.73;nan;98240.72;4995651;28;20937;-61
2022/05/23 03:33:11;;;;;;;10.80;4.73;;;;;;;9.85;nan;98251.53;4993039;28;20384;-61
2022/05/23 03:35:38;;;;;;;5.93;4.33;;;;;;;9.90;nan;98259.94;4992170;28;20034;-62
2022/05/23 03:38:05;;;;;;;4.80;3.93;;;;;;;9.88;nan;98248.06;4992119;28;20474;-61
2022/05/23 03:40:31;;;;;;;4.70;4.30;;;;;;;9.92;nan;98252.25;4995351;28;20467;-61
2022/05/23 03:42:57;;;;;;;6.63;4.60;;;;;;;10.00;nan;98258.88;4996635;28;20030;-61
2022/05/23 03:45:24;;;;;;;6.63;4.63;;;;;;;10.09;nan;98252.69;4992883;28;20624;-61
2022/05/23 03:47:50;;;;;;;7.87;4.70;;;;;;;10.20;nan;98265.28;4993380;28;20059;-62
2022/05/23 03:50:16;;;;;;;5.77;5.27;;;;;;;10.26;nan;98262.59;4995326;28;20061;-62
2022/05/23 03:52:42;;;;;;;7.37;4.20;;;;;;;10.30;nan;98259.06;4998912;28;20026;-64
2022/05/23 03:55:08;;;;;;;5.23;4.43;;;;;;;10.46;nan;98274.03;4992542;28;20495;-61
2022/05/23 03:57:34;;;;;;;5.87;4.70;;;;;;;10.55;nan;98280.66;4991905;28;20042;-61
2022/05/23 03:59:59;;;;;;;4.65;4.22;;;;;;;10.63;nan;98275.34;4996200;28;20030;-61
2022/05/23 04:02:25;;;;;;;5.25;4.57;;;;;;;10.81;nan;98293.69;4999323;28;20487;-60
2022/05/23 04:04:51;;;;;;;7.32;5.20;;;;;;;10.95;nan;98283.03;4995573;28;20132;-63
2022/05/23 04:07:16;;;;;;;6.63;4.72;;;;;;;11.19;nan;98281.56;4993425;28;20128;-60
2022/05/23 04:09:42;;;;;;;6.72;4.85;;;;;;;11.30;nan;98282.94;4998707;28;20084;-62
2022/05/23 04:12:07;;;;;;;6.22;4.22;;;;;;;11.26;nan;98275.38;4998860;28;20108;-61
2022/05/23 04:14:33;;;;;;;6.13;4.50;;;;;;;11.48;nan;98271.34;4993493;28;20030;-60
2022/05/23 04:16:58;;;;;;;5.40;4.70;;;;;;;11.64;nan;98274.28;4995414;28;20037;-61
2022/05/23 04:19:25;;;;;;;4.55;4.07;;;;;;;11.69;nan;98265.59;4999482;28;20026;-61
2022/05/23 04:21:52;;;;;;;5.55;4.45;;;;;;;11.93;nan;98278.59;4999108;28;20092;-60
2022/05/23 04:24:18;;;;;;;6.80;4.80;;;;;;;12.03;nan;98274.88;4993184;28;20030;-62
2022/05/23 04:26:44;;;;;;;4.57;4.05;;;;;;;12.11;nan;98268.63;4990372;28;20404;-62
2022/05/23 04:29:10;;;;;;;5.00;4.13;;;;;;;12.38;nan;98287.47;4990640;28;20034;-61
2022/05/23 04:31:36;;;;;;;6.22;4.80;;;;;;;12.51;nan;98291.34;4996341;28;20030;-61
2022/05/23 04:36:47;;;;;;;5.38;4.03;;;;;;;12.72;nan;98292.38;4989986;28;20484;-60
2022/05/23 04:39:13;;;;;;;5.63;4.22;;;;;;;12.81;nan;98297.22;4990287;28;20045;-61
2022/05/23 04:41:39;;;;;;;5.63;4.45;;;;;;;12.93;nan;98286.50;4995737;28;20029;-61
2022/05/23 04:44:04;;;;;;;9.43;4.55;;;;;;;13.05;nan;98282.69;4990619;28;20076;-61
2022/05/23 04:46:30;;;;;;;5.57;5.07;;;;;;;13.24;nan;98282.00;4991750;28;20427;-61
2022/05/23 04:51:40;;;;;;;5.00;4.50;;;;;;;13.62;nan;98280.63;4989524;28;20169;-61
2022/05/23 04:54:07;;;;;;;7.63;4.78;;;;;;;13.75;nan;98262.16;4990458;28;20034;-61
2022/05/23 04:56:33;;;;;;;9.05;5.10;;;;;;;13.80;nan;98267.97;4995318;28;20169;-61
2022/05/23 04:58:59;;;;;;;4.75;4.35;;;;;;;14.03;nan;98262.78;4989440;28;20030;-61
2022/05/23 05:01:25;;;;;;;6.78;4.60;;;;;;;14.08;nan;98266.03;4990641;28;20610;-61
2022/05/23 05:03:53;;;;;;;7.72;4.50;;;;;;;14.17;nan;98239.88;4990071;28;20042;-61
2022/05/23 05:06:20;;;;;;;5.13;4.63;;;;;;;14.33;nan;98250.41;4995541;28;20485;-61
2022/05/23 05:08:46;;;;;;;6.10;4.55;;;;;;;14.55;nan;98264.97;4991839;28;20034;-61
2022/05/23 05:11:11;;;;;;;5.60;4.22;;;;;;;14.71;nan;98252.31;4991499;28;20037;-61
2022/05/23 05:13:36;;;;;;;4.43;3.72;;;;;;;14.86;nan;98256.81;4991021;28;20045;-61
2022/05/23 05:16:07;;;;;;;5.85;4.20;;;;;;;15.04;nan;98257.78;4997190;28;20431;-61
2022/05/23 05:18:33;;;;;;;5.38;3.95;;;;;;;15.14;nan;98245.31;4993635;28;20404;-61
2022/05/23 05:21:07;;;;;;;4.13;3.83;;;;;;;15.31;nan;98256.59;4990506;28;20033;-61
2022/05/23 05:23:33;;;;;;;5.07;3.78;;;;;;;15.40;nan;98247.59;4992463;28;20026;-61
2022/05/23 05:25:58;;;;;;;5.38;4.22;;;;;;;15.61;nan;98253.59;4996956;28;20453;-61
2022/05/23 05:28:24;;;;;;;8.07;4.13;;;;;;;15.71;nan;98241.91;4994495;28;20089;-62
2022/05/23 05:31:03;;;;;;;5.88;3.85;;;;;;;15.84;nan;98245.59;4988943;28;20078;-62
2022/05/23 05:33:36;;;;;;;5.82;4.15;;;;;;;16.07;nan;98257.47;4991913;28;20120;-62
2022/05/23 05:36:06;;;;;;;5.47;4.72;;;;;;;15.96;nan;98251.03;4997242;28;20172;-61
2022/05/23 05:38:41;;;;;;;4.65;4.22;;;;;;;16.17;nan;98249.19;5007380;28;20145;-61
2022/05/23 05:41:14;;;;;;;4.97;4.28;;;;;;;16.31;nan;98246.78;4990476;28;20378;-61
2022/05/23 05:43:48;;;;;;;8.20;3.97;;;;;;;16.39;nan;98244.66;4990687;28;20084;-61
2022/05/23 05:46:20;;;;;;;6.25;3.55;;;;;;;16.46;nan;98240.06;4999220;28;20425;-62
2022/05/23 05:48:49;;;;;;;4.18;3.78;;;;;;;16.64;nan;98244.34;4992181;28;20355;-62
2022/05/23 05:51:17;;;;;;;5.40;3.67;;;;;;;16.61;nan;98239.31;4990344;28;20037;-62
2022/05/23 05:53:44;;;;;;;9.70;3.30;;;;;;;16.77;nan;98236.78;4989707;28;20062;-61
2022/05/23 05:56:10;;;;;;;3.70;3.33;;;;;;;16.75;nan;98244.66;4995792;28;20030;-60
2022/05/23 05:58:35;;;;;;;12.10;4.25;;;;;;;16.73;nan;98243.03;4988362;28;20034;-61
2022/05/23 06:01:01;;;;;;;7.43;3.50;;;;;;;16.89;nan;98242.19;4988093;28;20034;-61
2022/05/23 06:03:27;;;;;;;7.38;4.20;;;;;;;16.96;nan;98242.72;4989767;28;20045;-61
2022/05/23 06:11:23;;;;;;;8.02;4.85;;;;;;;17.07;nan;98240.41;4991868;28;20416;-61
2022/05/23 06:13:49;;;;;;;4.82;3.83;;;;;;;17.09;nan;98245.53;4989335;28;20034;-60
2022/05/23 06:16:15;;;;;;;8.57;4.00;;;;;;;17.20;nan;98248.41;4988779;28;20439;-61
2022/05/23 06:18:41;;;;;;;6.88;4.85;;;;;;;17.25;nan;98239.47;4988261;28;20384;-61
2022/05/23 06:21:09;;;;;;;4.70;3.45;;;;;;;17.31;nan;98244.31;4994683;28;20562;-61
2022/05/23 06:23:36;;;;;;;6.18;4.03;;;;;;;17.31;nan;98233.97;4989067;28;20040;-61
2022/05/23 06:26:01;;;;;;;7.40;3.78;;;;;;;17.46;nan;98232.31;4988251;28;20046;-61
2022/05/23 06:28:27;;;;;;;7.03;3.97;;;;;;;17.66;nan;98242.50;4988500;28;20373;-61
2022/05/23 06:30:52;;;;;;;6.45;4.15;;;;;;;17.77;nan;98236.75;4993684;28;20033;-62
2022/05/23 06:33:17;;;;;;;6.13;4.07;;;;;;;17.79;nan;98230.53;4992237;28;20121;-61
2022/05/23 06:35:43;;;;;;;4.68;4.10;;;;;;;17.80;nan;98233.97;4988502;28;20038;-61
2022/05/23 06:38:08;;;;;;;7.82;4.50;;;;;;;17.87;nan;98218.91;4989040;28;20050;-61
2022/05/23 06:40:34;;;;;;;4.15;3.85;;;;;;;18.08;nan;98221.16;4996298;28;20026;-62
2022/05/23 06:43:01;;;;;;;4.85;3.90;;;;;;;17.93;nan;98226.38;4995324;28;20338;-61
2022/05/23 06:45:27;;;;;;;3.42;3.13;;;;;;;18.21;nan;98226.50;4989584;28;20031;-61
2022/05/23 06:47:52;;;;;;;6.22;3.80;;;;;;;18.39;nan;98216.84;4989816;28;20107;-61
2022/05/23 06:50:18;;;;;;;4.07;3.05;;;;;;;18.36;nan;98209.22;4995334;28;20033;-61
2022/05/23 06:52:43;;;;;;;4.22;2.53;;;;;;;18.59;nan;98206.16;4993992;28;20042;-61
2022/05/23 06:55:09;;;;;;;3.50;2.72;;;;;;;18.53;nan;98199.59;4987611;28;20049;-62
2022/05/23 06:57:34;;;;;;;6.63;3.33;;;;;;;18.60;nan;98198.28;4988568;28;20395;-62
2022/05/23 07:00:00;;;;;;;3.00;2.78;;;;;;;18.50;nan;98197.13;4998542;28;20034;-61
2022/05/23 07:02:26;;;;;;;2.28;2.10;;;;;;;18.74;nan;98207.03;4997198;28;20044;-61
2022/05/23 07:13:04;;;;;;;2.95;2.53;;;;;;;19.57;nan;98194.19;4994472;28;20104;-61
2022/05/23 07:15:35;;;;;;;2.45;2.28;;;;;;;19.88;nan;98196.53;4992770;28;20030;-61
2022/05/23 07:18:02;;;;;;;2.63;2.20;;;;;;;20.27;nan;98198.34;4992542;28;20060;-62
2022/05/23 07:20:28;;;;;;;4.10;2.47;;;;;;;20.71;nan;98200.63;4998453;28;20058;-62
2022/05/23 07:22:53;;;;;;;3.47;2.50;;;;;;;20.71;nan;98177.19;4993277;28;20040;-62
2022/05/23 07:25:19;;;;;;;2.75;2.33;;;;;;;20.58;nan;98178.94;4993115;28;20026;-62
2022/05/23 07:27:44;;;;;;;2.80;2.60;;;;;;;20.62;nan;98174.41;4991664;28;20108;-61
2022/05/23 07:30:10;;;;;;;2.22;2.03;;;;;;;20.53;nan;98173.22;4995386;28;20051;-62
2022/05/23 07:32:36;;;;;;;6.55;2.95;;;;;;;20.60;nan;98168.44;4991940;28;20037;-61
2022/05/23 07:35:02;;;;;;;2.67;2.45;;;;;;;20.58;nan;98178.13;4994488;28;20045;-61
2022/05/23 07:37:28;;;;;;;4.63;2.85;;;;;;;20.72;nan;98168.44;4991664;28;20034;-62
2022/05/23 07:39:56;;;;;;;3.53;2.60;;;;;;;21.03;nan;98179.41;4992834;28;20080;-62
2022/05/23 07:42:22;;;;;;;3.15;2.88;;;;;;;20.76;nan;98189.91;4992666;28;20388;-62
2022/05/23 07:44:47;;;;;;;2.95;2.75;;;;;;;20.65;nan;98176.78;4994409;28;20054;-62
2022/05/23 07:47:13;;;;;;;3.00;2.70;;;;;;;20.64;nan;98170.75;4995541;28;20041;-63
2022/05/23 07:49:38;;;;;;;3.25;2.55;;;;;;;20.60;nan;98164.06;4992890;28;20408;-62
2022/05/23 07:52:04;;;;;;;2.45;2.25;;;;;;;20.67;nan;98167.06;4992013;28;20085;-62
2022/05/23 08:02:42;;;;;;;2.33;2.20;;;;;;;20.76;nan;98151.66;4990737;28;20550;-62
2022/05/23 08:05:08;;;;;;;3.20;2.83;;;;;;;20.87;nan;98145.75;4998710;28;20042;-62
2022/05/23 08:07:34;;;;;;;3.47;2.75;;;;;;;21.02;nan;98146.44;4997840;28;20034;-62
2022/05/23 08:10:00;;;;;;;2.50;2.30;;;;;;;21.01;nan;98161.25;4989998;28;20411;-62
2022/05/23 08:12:30;;;;;;;2.78;2.50;;;;;;;20.85;nan;98164.06;4992746;28;20034;-62
2022/05/23 08:14:56;;;;;;;2.88;2.55;;;;;;;20.94;nan;98163.47;4997716;28;20543;-62
2022/05/23 08:17:22;;;;;;;2.83;2.60;;;;;;;20.89;nan;98159.47;4996950;28;20042;-63
2022/05/23 08:19:49;;;;;;;3.40;3.08;;;;;;;20.76;nan;98156.03;4991688;28;20088;-63
2022/05/23 08:22:15;;;;;;;9.05;3.38;;;;;;;20.93;nan;98161.78;4990775;28;20025;-62
2022/05/23 08:24:40;;;;;;;3.30;2.63;;;;;;;21.06;nan;98156.56;4996175;28;20037;-62
2022/05/23 08:27:06;;;;;;;2.65;2.45;;;;;;;21.20;nan;98153.88;4994722;28;20064;-62
2022/05/23 08:29:31;;;;;;;3.38;2.47;;;;;;;21.41;nan;98164.56;4991721;28;20445;-63
2022/05/23 08:31:58;;;;;;;6.30;2.63;;;;;;;21.37;nan;98163.97;4991340;28;20044;-63
2022/05/23 08:34:24;;;;;;;4.90;2.67;;;;;;;21.47;nan;98171.97;4994505;28;20038;-62
2022/05/23 08:36:51;;;;;;;7.03;2.22;;;;;;;21.34;nan;98165.97;4996173;28;20041;-63
2022/05/23 08:39:16;;;;;;;6.38;2.05;;;;;;;21.39;nan;98158.63;4990022;28;20511;-60
2022/05/23 08:41:44;;;;;;;4.28;2.58;;;;;;;21.63;nan;98163.91;4990360;28;20034;-60
2022/05/23 08:44:14;;;;;;;2.53;2.22;;;;;;;21.54;nan;98161.94;4992942;28;20396;-62
2022/05/23 08:47:05;;;;;;;3.35;2.38;;;;;;;21.63;nan;98154.28;4993255;28;20364;-61
2022/05/23 08:49:50;;;;;;;1.90;1.80;;;;;;;21.94;nan;98160.75;4991089;28;20042;-61
2022/05/23 08:52:25;;;;;;;;;;;;;;;22.00;nan;98149.06;4991025;28;20041;-61
2022/05/23 08:55:09;;;;;;;3.33;1.80;;;;;;;22.05;nan;98150.41;4993175;28;19913;-61
2022/05/23 08:58:03;;;;;;;2.17;2.08;;;;;;;21.92;nan;98151.34;4991615;28;20037;-61
2022/05/23 09:00:35;;;;;;;3.10;1.95;;;;;;;21.93;nan;98153.91;4993897;28;20797;-61
2022/05/23 09:03:28;;;;;;;5.13;2.88;;;;;;;21.88;nan;98146.38;4991738;28;20093;-61
2022/05/23 09:05:57;;;;;;;2.58;2.20;;;;;;;21.69;nan;98147.78;4948375;28;20356;-61
2022/05/23 09:08:27;;;;;;;2.33;2.10;;;;;;;21.66;nan;98143.63;4948988;28;20567;-61
2022/05/23 09:11:07;;;;;;;3.55;2.28;;;;;;;21.67;nan;98134.88;4955324;28;20081;-61
2022/05/23 09:13:40;;;;;;;2.10;2.00;;;;;;;21.91;nan;98119.19;4948184;28;20450;-61
2022/05/23 09:16:06;;;;;;;3.95;2.28;;;;;;;21.75;nan;98127.31;4947847;28;20580;-61
2022/05/23 09:18:55;;;;;;;2.60;2.40;;;;;;;22.22;nan;98102.16;4950710;28;20035;-61
2022/05/23 09:21:21;;;;;;;2.58;2.38;;;;;;;22.16;nan;98108.66;4955489;28;20039;-61
2022/05/23 09:23:52;;;;;;;2.83;2.00;;;;;;;22.05;nan;98111.22;4949139;28;20050;-61
2022/05/23 09:26:29;;;;;;;3.42;3.00;;;;;;;22.07;nan;98113.72;4948947;28;20421;-62
2022/05/23 09:28:55;;;;;;;3.67;3.33;;;;;;;22.03;nan;98091.38;4954383;28;20042;-62
2022/05/23 09:31:37;;;;;;;4.32;2.53;;;;;;;22.09;nan;98085.72;4954842;28;20093;-63
2022/05/23 09:34:04;;;;;;;6.78;2.33;;;;;;;22.39;nan;98093.03;4948043;28;20042;-63
2022/05/23 09:36:37;;;;;;;5.43;2.47;;;;;;;22.35;nan;98092.44;4949448;28;20051;-63
2022/05/23 09:39:11;;;;;;;4.47;2.40;;;;;;;22.53;nan;98083.19;4954913;28;20569;-62
2022/05/23 09:49:55;;;;;;;;;;;;;;;22.71;nan;98076.59;4996702;28;20072;-62
2022/05/23 09:52:21;;;;;;;2.58;2.33;;;;;;;22.69;nan;98080.28;4993156;28;19913;-61
2022/05/23 09:54:53;;;;;;;3.45;2.15;;;;;;;23.03;nan;98070.66;4990497;28;20096;-61
2022/05/23 09:57:19;;;;;;;2.15;1.83;;;;;;;23.10;nan;98062.22;4990335;28;20483;-60
2022/05/23 09:59:52;;;;;;;3.35;2.10;;;;;;;23.36;nan;98068.00;4995821;28;20034;-61
2022/05/23 10:02:40;;;;;;;11.67;2.10;;;;;;;23.39;nan;98044.19;4991355;28;20033;-61
2022/05/23 10:05:23;;;;;;;4.25;2.47;;;;;;;23.31;nan;98045.75;4989072;28;20769;-61
2022/05/23 10:07:51;;;;;;;2.83;1.92;;;;;;;23.32;nan;98052.66;4988801;28;20066;-62
2022/05/23 10:10:25;;;;;;;3.40;2.35;;;;;;;23.52;nan;98044.91;4993939;28;20038;-62
2022/05/23 10:12:51;;;;;;;2.83;2.13;;;;;;;23.54;nan;98045.63;4989337;28;20036;-62
2022/05/23 10:15:30;;;;;;;5.47;3.30;;;;;;;23.77;nan;98048.13;4990118;28;20385;-62
2022/05/23 10:18:08;;;;;;;2.83;1.90;;;;;;;24.12;nan;98036.41;4989960;28;20050;-62
2022/05/23 10:20:39;;;;;;;6.15;2.50;;;;;;;24.27;nan;98023.88;4991317;28;20408;-61
2022/05/23 10:23:21;;;;;;;5.47;2.55;;;;;;;24.00;nan;98028.75;4989832;28;20468;-61
2022/05/23 10:26:16;;;;;;;3.70;2.58;;;;;;;24.07;nan;98025.50;4993191;28;20046;-61
2022/05/23 10:28:46;;;;;;;3.72;2.50;;;;;;;24.38;nan;98020.34;4984460;28;20050;-61
2022/05/23 10:31:21;;;;;;;5.22;2.80;;;;;;;24.44;nan;98022.44;4988905;28;20220;-61
2022/05/23 10:33:55;;;;;;;3.25;2.30;;;;;;;24.47;nan;98032.66;4989872;28;20029;-61
2022/05/23 10:36:24;;;;;;;2.58;2.38;;;;;;;24.36;nan;98024.84;4992505;28;20081;-61
2022/05/23 10:42:07;;;;;;;3.08;2.30;;;;;;;24.12;nan;98018.09;4989257;28;20077;-61
2022/05/23 10:44:42;;;;;;;4.95;2.30;;;;;;;24.24;nan;98020.66;4994036;28;20110;-60
2022/05/23 10:47:32;;;;;;;2.20;2.00;;;;;;;24.30;nan;98015.75;4992196;28;20038;-63
2022/05/23 10:50:21;;;;;;;3.83;2.45;;;;;;;24.56;nan;98011.75;4989141;28;20038;-61
2022/05/23 10:53:01;;;;;;;3.33;2.97;;;;;;;24.69;nan;98022.00;4992201;28;20031;-62
2022/05/23 10:55:32;;;;;;;3.38;2.47;;;;;;;24.42;nan;98012.06;4994925;28;20029;-61
2022/05/23 10:58:08;;;;;;;3.05;2.38;;;;;;;24.35;nan;98003.09;4991551;28;20049;-61
2022/05/23 11:00:54;;;;;;;5.90;3.05;;;;;;;24.25;nan;98012.69;4988980;28;20153;-61
2022/05/23 11:03:23;;;;;;;2.78;2.53;;;;;;;24.64;nan;98010.25;4995553;28;20105;-61
2022/05/23 11:06:13;;;;;;;2.63;2.30;;;;;;;24.48;nan;97982.75;4997017;28;20219;-61
2022/05/23 11:08:51;;;;;;;2.70;2.50;;;;;;;24.43;nan;97989.31;4988497;28;20038;-61
2022/05/23 11:11:34;;;;;;;2.90;2.70;;;;;;;24.62;nan;97996.41;4987880;28;20030;-61
2022/05/23 11:14:19;;;;;;;4.60;2.60;;;;;;;24.74;nan;97990.16;4996822;28;20116;-61
2022/05/23 11:17:26;;;;;;;3.20;2.90;;;;;;;24.90;nan;97983.47;4994352;28;20437;-61
2022/05/23 11:20:16;;;;;;;3.42;2.85;;;;;;;25.17;nan;97974.09;4988682;28;20038;-61
2022/05/23 11:22:53;;;;;;;2.80;2.60;;;;;;;25.19;nan;97975.63;4989821;28;20037;-61
2022/05/23 11:25:43;;;;;;;4.07;2.97;;;;;;;25.05;nan;97975.19;4994308;28;20116;-61
2022/05/23 11:34:23;;;;;;;8.45;4.07;;;;;;;24.57;nan;97966.19;4993311;28;20053;-62
2022/05/23 11:37:00;;;;;;;2.92;2.70;;;;;;;24.36;nan;97956.72;4988697;28;20064;-63
2022/05/23 11:39:49;;;;;;;4.13;2.70;;;;;;;24.62;nan;97963.19;4989317;28;20890;-62
2022/05/23 11:42:27;;;;;;;4.63;3.03;;;;;;;24.52;nan;97960.53;4988638;28;20547;-64
2022/05/23 11:44:54;;;;;;;3.35;2.78;;;;;;;24.32;nan;97955.31;4989737;28;20041;-62
2022/05/23 11:47:25;;;;;;;3.15;2.95;;;;;;;24.26;nan;97937.53;4991200;28;20035;-62
2022/05/23 11:49:59;;;;;;;5.30;3.00;;;;;;;24.47;nan;97939.13;4991461;28;20056;-62
2022/05/23 11:52:42;;;;;;;3.55;2.70;;;;;;;24.42;nan;97941.31;4992281;28;20127;-62
2022/05/23 11:55:32;;;;;;;3.35;2.78;;;;;;;24.19;nan;97934.59;4992209;28;20041;-62
2022/05/23 11:58:18;;;;;;;2.85;2.45;;;;;;;24.09;nan;97924.06;4992546;28;20031;-62
2022/05/23 12:01:03;;;;;;;4.45;3.03;;;;;;;24.33;nan;97934.25;4997384;28;20038;-62
2022/05/23 12:03:51;;;;;;;3.63;2.83;;;;;;;24.01;nan;97931.72;4991212;28;20125;-62
2022/05/23 12:06:18;;;;;;;5.68;4.43;;;;;;;23.93;nan;97935.97;4990884;28;20037;-62
2022/05/23 12:09:02;;;;;;;5.57;2.75;;;;;;;23.78;nan;97929.38;4996639;28;20511;-62
2022/05/23 12:11:30;;;;;;;3.83;2.88;;;;;;;23.64;nan;97930.53;4995255;28;20427;-62
2022/05/23 12:14:12;;;;;;;3.38;3.10;;;;;;;23.68;nan;97934.53;4990510;28;20038;-62
2022/05/23 12:16:41;;;;;;;4.30;2.83;;;;;;;23.73;nan;97923.69;4992039;28;20044;-63
2022/05/23 12:19:22;;;;;;;3.25;2.97;;;;;;;23.95;nan;97924.38;4998418;28;20038;-62
2022/05/23 12:21:49;;;;;;;5.20;3.42;;;;;;;23.83;nan;97909.72;4995910;28;20608;-62
2022/05/23 12:24:23;;;;;;;5.43;4.20;;;;;;;23.70;nan;97918.72;4991533;28;20046;-62
2022/05/23 12:26:57;;;;;;;;;;;;;;;23.68;nan;97927.53;4993705;28;20065;-62
2022/05/23 12:29:25;;;;;;;6.00;3.10;;;;;;;23.32;nan;97907.00;4997228;28;19921;-62
2022/05/23 12:32:26;;;;;;;11.75;9.95;;;;;;;23.20;nan;97918.47;4995143;28;20033;-62
2022/05/23 12:34:56;;;;;;;3.67;3.40;;;;;;;23.15;nan;97907.53;4990634;28;20042;-62
2022/05/23 12:37:33;;;;;;;5.15;3.92;;;;;;;23.38;nan;97903.06;4993495;28;20124;-62
2022/05/23 12:40:07;;;;;;;5.82;2.92;;;;;;;23.15;nan;97899.69;4996811;28;20030;-62
2022/05/23 12:42:42;;;;;;;4.68;3.00;;;;;;;23.25;nan;97895.38;4989192;28;20053;-62
2022/05/23 12:45:29;;;;;;;5.15;3.50;;;;;;;23.40;nan;97893.28;4990935;28;20045;-62
2022/05/23 12:48:23;;;;;;;5.40;2.83;;;;;;;23.42;nan;97883.53;4992411;28;20595;-62
2022/05/23 12:54:27;;;;;;;4.13;3.25;;;;;;;24.08;nan;97879.66;4990726;28;20355;-62
2022/05/23 12:57:29;;;;;;;5.90;3.55;;;;;;;24.46;nan;97885.06;4989309;28;20577;-63
2022/05/23 13:00:01;;;;;;;4.95;2.95;;;;;;;24.40;nan;97880.34;4994524;28;20145;-62
2022/05/23 13:02:30;;;;;;;3.53;3.22;;;;;;;24.46;nan;97864.09;4990955;28;20121;-62
2022/05/23 13:05:06;;;;;;;6.07;3.08;;;;;;;24.20;nan;97860.28;4991989;28;20042;-63